Time;durP1;ratioP1;P1;durP2;ratioP2;P2;SDS_P1;SDS_P2;PMS_P1;PMS_P2;Temp;Humidity;BMP_temperature;BMP_pressure;BME280_temperature;BME280_humidity;BME280_pressure;Samples;Min_cycle;Max_cycle;Signal;HPM_P1;HPM_P2
2023/07/25 00:00:34;;;;;;;0.10;0.10;;;;;;;15.14;100.00;95598.44;5020148;28;20639;-78
2023/07/25 00:03:20;;;;;;;0.10;0.10;;;;;;;15.16;100.00;95598.94;5011350;28;20058;-78
2023/07/25 00:06:06;;;;;;;0.10;0.10;;;;;;;15.14;100.00;95598.44;5020856;28;20079;-78
2023/07/25 00:08:51;;;;;;;0.10;0.10;;;;;;;15.13;100.00;95605.72;4998308;28;20034;-78
2023/07/25 00:11:40;;;;;;;0.10;0.10;;;;;;;15.07;100.00;95608.81;5020960;28;20045;-77
2023/07/25 00:14:26;;;;;;;0.10;0.10;;;;;;;14.99;100.00;95612.97;5021080;28;20099;-77
2023/07/25 00:17:15;;;;;;;0.00;0.00;;;;;;;14.97;100.00;95599.00;5021362;28;20041;-79
2023/07/25 00:20:01;;;;;;;0.10;0.10;;;;;;;14.99;100.00;95607.59;5016490;28;20052;-79
2023/07/25 00:22:46;;;;;;;0.00;0.00;;;;;;;14.96;100.00;95618.97;5019881;28;20041;-78
2023/07/25 00:25:33;;;;;;;0.10;0.10;;;;;;;14.91;100.00;95603.69;5020646;28;20095;-77
2023/07/25 00:28:19;;;;;;;0.10;0.10;;;;;;;14.90;100.00;95599.41;5021733;28;20159;-79
2023/07/25 00:31:06;;;;;;;0.00;0.00;;;;;;;14.95;100.00;95598.53;4999926;28;20045;-79
2023/07/25 00:33:52;;;;;;;0.10;0.10;;;;;;;14.91;100.00;95595.59;4999138;28;20045;-77
2023/07/25 00:36:38;;;;;;;0.10;0.10;;;;;;;14.92;100.00;95586.44;5021415;28;20183;-77
2023/07/25 00:39:24;;;;;;;0.10;0.10;;;;;;;14.87;100.00;95585.72;5021137;28;20034;-79
2023/07/25 00:42:10;;;;;;;0.10;0.10;;;;;;;14.92;100.00;95580.25;5013489;28;20182;-79
2023/07/25 00:44:56;;;;;;;0.10;0.10;;;;;;;14.96;100.00;95584.75;5021229;28;20158;-78
2023/07/25 00:47:42;;;;;;;0.00;0.00;;;;;;;14.97;100.00;95580.94;4996293;28;20128;-77
2023/07/25 00:50:28;;;;;;;0.10;0.10;;;;;;;14.98;100.00;95570.97;5005972;28;20049;-78
2023/07/25 00:53:15;;;;;;;0.10;0.10;;;;;;;14.90;100.00;95577.84;5019158;28;20144;-79
2023/07/25 00:56:01;;;;;;;0.10;0.10;;;;;;;14.84;100.00;95573.63;5029035;28;20052;-78
2023/07/25 00:58:47;;;;;;;0.10;0.10;;;;;;;14.81;100.00;95562.69;5039226;28;20067;-79
2023/07/25 01:01:33;;;;;;;0.00;0.00;;;;;;;14.78;100.00;95555.97;5023240;28;20057;-79
2023/07/25 01:04:19;;;;;;;0.00;0.00;;;;;;;14.84;100.00;95560.16;5038210;28;20088;-78
2023/07/25 01:07:06;;;;;;;0.10;0.10;;;;;;;14.76;100.00;95550.09;5035436;28;20844;-79
2023/07/25 01:09:52;;;;;;;0.10;0.10;;;;;;;14.70;100.00;95557.44;5022025;28;20076;-78
2023/07/25 01:12:38;;;;;;;0.10;0.10;;;;;;;14.67;100.00;95549.97;5037982;28;20071;-80
2023/07/25 01:15:25;;;;;;;0.10;0.10;;;;;;;14.73;100.00;95564.94;5042160;28;20064;-79
2023/07/25 01:18:12;;;;;;;0.10;0.10;;;;;;;14.71;100.00;95560.97;5040029;28;20124;-78
2023/07/25 01:20:59;;;;;;;0.10;0.10;;;;;;;14.65;100.00;95554.06;5038662;28;20041;-80
2023/07/25 01:23:45;;;;;;;0.10;0.10;;;;;;;14.62;100.00;95555.44;5021328;28;20131;-80
2023/07/25 01:26:31;;;;;;;0.10;0.10;;;;;;;14.47;100.00;95553.00;5040876;28;20494;-79
2023/07/25 01:29:17;;;;;;;0.13;0.13;;;;;;;14.39;100.00;95545.56;5037881;28;20032;-78
2023/07/25 01:32:03;;;;;;;0.10;0.10;;;;;;;14.45;100.00;95541.72;5030996;28;20063;-78
2023/07/25 01:34:49;;;;;;;0.10;0.10;;;;;;;14.48;100.00;95543.84;5039401;28;20171;-78
2023/07/25 01:37:35;;;;;;;0.10;0.10;;;;;;;14.35;100.00;95544.56;5037949;28;20079;-79
2023/07/25 01:40:20;;;;;;;0.10;0.10;;;;;;;14.35;100.00;95553.44;5038004;28;20051;-79
2023/07/25 01:43:06;;;;;;;0.10;0.10;;;;;;;14.36;100.00;95541.59;5033691;28;20151;-77
2023/07/25 01:45:52;;;;;;;0.10;0.10;;;;;;;14.42;100.00;95539.63;5023302;28;20622;-77
2023/07/25 01:48:38;;;;;;;0.10;0.10;;;;;;;14.41;100.00;95538.03;5037079;28;20044;-78
2023/07/25 01:51:25;;;;;;;0.10;0.10;;;;;;;14.44;100.00;95548.97;5036889;28;20033;-76
2023/07/25 01:54:11;;;;;;;0.10;0.10;;;;;;;14.36;100.00;95540.78;5036626;28;20040;-77
2023/07/25 01:56:57;;;;;;;0.10;0.10;;;;;;;14.35;100.00;95531.13;5031100;28;20049;-78
2023/07/25 01:59:44;;;;;;;0.10;0.10;;;;;;;14.37;100.00;95528.94;5040393;28;20068;-77
2023/07/25 02:02:30;;;;;;;0.10;0.10;;;;;;;14.12;100.00;95530.13;5019352;28;20040;-78
2023/07/25 02:05:16;;;;;;;0.10;0.10;;;;;;;14.02;100.00;95519.53;5022007;28;20045;-78
2023/07/25 02:08:02;;;;;;;0.10;0.10;;;;;;;14.07;100.00;95522.94;5035575;28;20048;-79
2023/07/25 02:10:47;;;;;;;0.10;0.10;;;;;;;14.10;100.00;95519.69;5042615;28;20055;-79
2023/07/25 02:13:33;;;;;;;0.00;0.00;;;;;;;14.07;100.00;95522.94;5029759;28;20894;-79
2023/07/25 02:16:19;;;;;;;0.10;0.10;;;;;;;14.13;100.00;95526.34;5038204;28;20080;-79
2023/07/25 02:19:06;;;;;;;0.10;0.10;;;;;;;14.12;100.00;95522.06;5023828;28;20194;-77
2023/07/25 02:21:52;;;;;;;0.10;0.10;;;;;;;14.26;100.00;95519.44;5021369;28;20041;-77
2023/07/25 02:24:37;;;;;;;0.10;0.10;;;;;;;14.01;100.00;95513.38;5038138;28;20434;-78
2023/07/25 02:27:23;;;;;;;0.10;0.10;;;;;;;13.84;100.00;95523.81;5022927;28;20992;-77
2023/07/25 02:30:10;;;;;;;0.10;0.10;;;;;;;13.79;100.00;95513.97;5038849;28;20037;-77
2023/07/25 02:32:56;;;;;;;0.10;0.10;;;;;;;13.89;100.00;95510.31;5018760;28;20056;-78
2023/07/25 02:35:42;;;;;;;0.10;0.10;;;;;;;14.01;100.00;95516.06;5023000;28;20112;-78
2023/07/25 02:38:28;;;;;;;0.10;0.10;;;;;;;14.01;100.00;95501.78;5038388;28;20041;-78
2023/07/25 02:41:13;;;;;;;0.10;0.10;;;;;;;13.96;100.00;95505.38;5037089;28;20037;-78
2023/07/25 02:43:59;;;;;;;0.10;0.10;;;;;;;14.12;100.00;95514.78;5012585;28;20033;-77
2023/07/25 02:46:45;;;;;;;0.10;0.10;;;;;;;14.20;100.00;95522.19;5024469;28;20041;-80
2023/07/25 02:49:31;;;;;;;0.10;0.10;;;;;;;14.21;100.00;95515.72;5037260;28;20041;-78
2023/07/25 02:52:18;;;;;;;0.10;0.10;;;;;;;14.11;100.00;95513.19;5021852;28;20494;-78
2023/07/25 02:55:05;;;;;;;0.10;0.10;;;;;;;14.06;100.00;95510.59;5016027;28;20053;-78
2023/07/25 02:57:51;;;;;;;0.10;0.10;;;;;;;14.10;100.00;95506.22;4999568;28;20120;-78
2023/07/25 03:00:36;;;;;;;0.10;0.10;;;;;;;14.01;100.00;95499.09;5014506;28;20041;-78
2023/07/25 03:03:24;;;;;;;0.10;0.10;;;;;;;14.13;100.00;95504.84;5018569;28;20064;-79
2023/07/25 03:06:11;;;;;;;0.10;0.10;;;;;;;14.21;100.00;95506.84;4999502;28;20038;-79
2023/07/25 03:08:57;;;;;;;0.10;0.10;;;;;;;14.22;100.00;95497.69;5017583;28;20057;-79
2023/07/25 03:11:43;;;;;;;0.10;0.10;;;;;;;14.15;100.00;95503.44;5017891;28;20372;-79
2023/07/25 03:14:28;;;;;;;0.10;0.10;;;;;;;14.18;100.00;95494.00;5019454;28;20046;-78
2023/07/25 03:17:17;;;;;;;0.10;0.10;;;;;;;14.22;100.00;95492.31;5016774;28;20069;-79
2023/07/25 03:20:03;;;;;;;0.10;0.10;;;;;;;14.23;100.00;95489.31;5000205;28;20589;-78
2023/07/25 03:22:49;;;;;;;0.10;0.10;;;;;;;14.21;100.00;95496.88;5016688;28;20029;-79
2023/07/25 03:25:35;;;;;;;0.10;0.10;;;;;;;14.23;100.00;95493.91;5017986;28;20527;-79
2023/07/25 03:28:21;;;;;;;0.00;0.00;;;;;;;14.23;100.00;95497.38;5002065;28;20045;-79
2023/07/25 03:31:07;;;;;;;0.10;0.10;;;;;;;14.30;100.00;95493.53;5021163;28;20052;-79
2023/07/25 03:33:53;;;;;;;0.10;0.10;;;;;;;14.32;100.00;95496.72;5000013;28;20041;-79
2023/07/25 03:36:38;;;;;;;0.10;0.10;;;;;;;14.32;100.00;95496.72;5019296;28;20041;-78
2023/07/25 03:39:24;;;;;;;0.10;0.10;;;;;;;14.28;100.00;95504.59;5020573;28;20041;-78
2023/07/25 03:42:10;;;;;;;0.03;0.03;;;;;;;14.23;100.00;95510.03;5004489;28;20044;-77
2023/07/25 03:44:56;;;;;;;0.10;0.10;;;;;;;14.23;100.00;95508.16;5001836;28;20037;-77
2023/07/25 03:47:42;;;;;;;0.10;0.10;;;;;;;14.23;100.00;95499.28;5023527;28;20037;-76
2023/07/25 03:50:29;;;;;;;0.10;0.10;;;;;;;14.26;100.00;95487.16;5018271;28;20084;-76
2023/07/25 03:53:15;;;;;;;0.10;0.10;;;;;;;14.28;100.00;95491.13;5001877;28;20060;-79
2023/07/25 03:56:01;;;;;;;0.10;0.10;;;;;;;14.29;100.00;95492.72;5005751;28;20049;-78
2023/07/25 03:58:46;;;;;;;0.10;0.10;;;;;;;14.26;100.00;95487.16;5003174;28;20613;-79
2023/07/25 04:01:32;;;;;;;0.08;0.08;;;;;;;14.20;100.00;95483.72;5019543;28;20995;-77
2023/07/25 04:04:18;;;;;;;0.10;0.10;;;;;;;14.02;100.00;95487.28;5020611;28;20132;-77
2023/07/25 04:07:04;;;;;;;0.10;0.10;;;;;;;13.98;100.00;95484.34;5023660;28;20447;-77
2023/07/25 04:09:50;;;;;;;0.10;0.10;;;;;;;13.78;100.00;95485.47;5024961;28;20037;-77
2023/07/25 04:12:36;;;;;;;0.10;0.10;;;;;;;13.73;100.00;95476.69;5024867;28;20695;-77
2023/07/25 04:15:22;;;;;;;0.10;0.10;;;;;;;13.60;100.00;95475.50;5015937;28;20664;-79
2023/07/25 04:18:08;;;;;;;0.10;0.10;;;;;;;13.77;100.00;95475.00;5022542;28;20119;-78
2023/07/25 04:20:56;;;;;;;0.10;0.10;;;;;;;13.79;100.00;95483.59;5022634;28;20072;-77
2023/07/25 04:23:43;;;;;;;0.10;0.10;;;;;;;13.96;100.00;95466.91;5021448;28;20048;-78
2023/07/25 04:26:28;;;;;;;0.10;0.10;;;;;;;13.93;100.00;95466.44;5023998;28;20046;-78
2023/07/25 04:29:14;;;;;;;0.10;0.10;;;;;;;14.08;100.00;95454.59;5022878;28;20092;-78
2023/07/25 04:32:00;;;;;;;0.10;0.10;;;;;;;14.21;100.00;95456.53;5023369;28;20049;-77
2023/07/25 04:34:46;;;;;;;0.15;0.15;;;;;;;14.28;100.00;95455.34;5021147;28;20051;-77
2023/07/25 04:37:32;;;;;;;0.20;0.20;;;;;;;14.19;100.00;95456.03;5018456;28;20103;-77
2023/07/25 04:40:17;;;;;;;0.10;0.10;;;;;;;14.17;100.00;95458.22;5020630;28;20112;-77
2023/07/25 04:43:03;;;;;;;0.10;0.10;;;;;;;14.20;100.00;95451.44;5020659;28;20049;-76
2023/07/25 04:45:49;;;;;;;0.05;0.05;;;;;;;14.19;100.00;95445.28;5013883;28;20037;-77
2023/07/25 04:48:35;;;;;;;0.00;0.00;;;;;;;14.25;100.00;95437.91;5019843;28;20042;-78
2023/07/25 04:51:21;;;;;;;0.05;0.05;;;;;;;14.30;100.00;95456.66;5020949;28;20037;-77
2023/07/25 04:54:07;;;;;;;0.10;0.10;;;;;;;14.29;100.00;95452.38;5026270;28;20155;-77
2023/07/25 04:56:53;;;;;;;0.10;0.10;;;;;;;14.27;100.00;95456.44;5019688;28;20041;-76
2023/07/25 04:59:39;;;;;;;0.10;0.10;;;;;;;14.06;100.00;95462.16;5020461;28;20102;-78
2023/07/25 05:02:25;;;;;;;0.10;0.10;;;;;;;14.15;100.00;95457.69;5019883;28;20041;-76
2023/07/25 05:05:11;;;;;;;0.10;0.10;;;;;;;14.13;100.00;95459.91;5022440;28;20048;-78
2023/07/25 05:07:56;;;;;;;0.10;0.10;;;;;;;14.32;100.00;95464.41;5020884;28;20060;-77
2023/07/25 05:10:42;;;;;;;0.10;0.10;;;;;;;14.36;100.00;95468.94;5008407;28;20034;-76
2023/07/25 05:13:28;;;;;;;0.10;0.10;;;;;;;14.48;100.00;95476.56;5013557;28;20053;-76
2023/07/25 05:16:14;;;;;;;0.10;0.10;;;;;;;14.53;100.00;95471.06;5022795;28;20038;-77
2023/07/25 05:19:00;;;;;;;0.10;0.10;;;;;;;14.53;100.00;95465.69;4999098;28;20587;-77
2023/07/25 05:21:46;;;;;;;0.20;0.20;;;;;;;14.51;100.00;95467.88;5021473;28;20748;-76
2023/07/25 05:24:31;;;;;;;0.10;0.10;;;;;;;14.55;100.00;95465.38;4998518;28;20691;-77
2023/07/25 05:27:17;;;;;;;0.10;0.10;;;;;;;14.47;100.00;95472.25;5018173;28;20114;-77
2023/07/25 05:30:04;;;;;;;0.10;0.10;;;;;;;14.29;100.00;95478.47;5022473;28;20041;-77
2023/07/25 05:32:49;;;;;;;0.20;0.20;;;;;;;14.20;100.00;95472.97;5018879;28;20057;-77
2023/07/25 05:35:35;;;;;;;0.10;0.10;;;;;;;14.39;100.00;95483.66;5005309;28;20728;-79
2023/07/25 05:38:21;;;;;;;0.10;0.10;;;;;;;14.47;100.00;95478.47;5009914;28;20040;-76
2023/07/25 05:41:07;;;;;;;0.10;0.10;;;;;;;14.53;100.00;95487.22;5012111;28;20546;-77
2023/07/25 05:43:53;;;;;;;0.10;0.10;;;;;;;14.37;100.00;95481.28;5022262;28;20514;-77
2023/07/25 05:46:38;;;;;;;0.10;0.10;;;;;;;14.53;100.00;95484.53;5020555;28;20041;-77
2023/07/25 05:49:27;;;;;;;0.10;0.10;;;;;;;14.48;100.00;95482.75;5016599;28;20069;-76
2023/07/25 05:52:13;;;;;;;0.10;0.10;;;;;;;14.45;100.00;95486.00;5011374;28;20049;-77
2023/07/25 05:54:58;;;;;;;0.10;0.10;;;;;;;14.71;100.00;95481.00;5014416;28;20140;-77
2023/07/25 05:57:44;;;;;;;0.10;0.10;;;;;;;14.85;100.00;95470.19;5041233;28;20040;-77
2023/07/25 06:00:30;;;;;;;0.10;0.10;;;;;;;14.76;100.00;95480.06;5039329;28;20037;-76
2023/07/25 06:03:16;;;;;;;0.10;0.10;;;;;;;14.68;100.00;95478.88;5039366;28;20099;-78
2023/07/25 06:06:03;;;;;;;0.10;0.10;;;;;;;14.70;100.00;95482.06;5038493;28;20403;-78
2023/07/25 06:08:49;;;;;;;0.10;0.10;;;;;;;14.70;100.00;95489.34;5040241;28;20040;-77
2023/07/25 06:11:35;;;;;;;0.20;0.20;;;;;;;14.62;100.00;95482.75;5020117;28;20055;-77
2023/07/25 06:14:21;;;;;;;0.10;0.10;;;;;;;14.43;100.00;95484.69;5038381;28;20037;-77
2023/07/25 06:17:07;;;;;;;0.10;0.10;;;;;;;14.54;100.00;95496.88;5040871;28;20061;-77
2023/07/25 06:19:53;;;;;;;0.10;0.10;;;;;;;14.66;100.00;95481.06;5037866;28;20167;-78
2023/07/25 06:22:41;;;;;;;0.10;0.10;;;;;;;14.71;100.00;95482.88;5039759;28;20105;-78
2023/07/25 06:25:27;;;;;;;0.10;0.10;;;;;;;14.65;100.00;95482.16;5042318;28;20051;-79
2023/07/25 06:28:14;;;;;;;0.10;0.10;;;;;;;14.39;100.00;95491.75;5039135;28;20045;-79
2023/07/25 06:31:02;;;;;;;0.10;0.10;;;;;;;14.41;100.00;95498.44;5037869;28;20171;-79
2023/07/25 06:33:48;;;;;;;0.10;0.10;;;;;;;14.48;100.00;95500.78;5025202;28;20045;-77
2023/07/25 06:36:34;;;;;;;0.10;0.10;;;;;;;14.30;100.00;95501.59;5041465;28;20052;-77
2023/07/25 06:39:20;;;;;;;0.10;0.10;;;;;;;14.26;100.00;95514.84;5032478;28;20499;-77
2023/07/25 06:42:06;;;;;;;0.10;0.10;;;;;;;14.18;100.00;95512.84;5038804;28;20045;-77
2023/07/25 06:44:54;;;;;;;0.03;0.03;;;;;;;14.00;100.00;95524.41;5038984;28;20045;-78
2023/07/25 06:47:40;;;;;;;0.05;0.05;;;;;;;13.93;100.00;95519.41;5039453;28;20041;-78
2023/07/25 06:50:26;;;;;;;0.08;0.08;;;;;;;14.07;100.00;95522.94;5037075;28;20048;-77
2023/07/25 06:53:12;;;;;;;0.10;0.10;;;;;;;14.07;100.00;95528.31;5035191;28;20049;-77
2023/07/25 06:55:58;;;;;;;0.10;0.10;;;;;;;14.23;100.00;95524.28;5024204;28;20079;-77
2023/07/25 06:58:44;;;;;;;0.08;0.08;;;;;;;14.12;100.00;95522.06;5038750;28;20072;-77
2023/07/25 07:01:29;;;;;;;0.10;0.10;;;;;;;13.95;100.00;95525.28;5037681;28;20052;-77
2023/07/25 07:04:18;;;;;;;0.10;0.10;;;;;;;13.93;100.00;95530.16;5041335;28;20128;-77
2023/07/25 07:07:04;;;;;;;0.10;0.10;;;;;;;14.09;100.00;95520.78;5044810;28;20037;-77
2023/07/25 07:09:50;;;;;;;0.10;0.10;;;;;;;14.17;100.00;95525.50;5044715;28;20040;-78
2023/07/25 07:12:36;;;;;;;0.10;0.10;;;;;;;14.24;100.00;95527.81;5042607;28;20154;-78
2023/07/25 07:15:24;;;;;;;0.10;0.10;;;;;;;14.26;100.00;95531.00;5035724;28;20045;-79
2023/07/25 07:18:10;;;;;;;0.10;0.10;;;;;;;14.26;100.00;95524.81;5041713;28;20712;-78
2023/07/25 07:20:56;;;;;;;0.10;0.10;;;;;;;14.26;100.00;95522.94;5027104;28;20047;-77
2023/07/25 07:23:42;;;;;;;0.10;0.10;;;;;;;14.15;100.00;95533.03;5038717;28;20799;-77
2023/07/25 07:26:28;;;;;;;0.10;0.10;;;;;;;14.10;100.00;95525.06;5042318;28;20478;-77
2023/07/25 07:29:15;;;;;;;0.10;0.10;;;;;;;14.16;100.00;95534.66;5041599;28;20055;-78
2023/07/25 07:32:03;;;;;;;0.10;0.10;;;;;;;14.10;100.00;95527.75;5022818;28;20044;-79
2023/07/25 07:34:48;;;;;;;0.10;0.10;;;;;;;13.98;100.00;95540.84;5041592;28;20045;-77
2023/07/25 07:37:34;;;;;;;0.10;0.10;;;;;;;13.94;100.00;95542.53;5041712;28;20033;-77
2023/07/25 07:40:20;;;;;;;0.10;0.10;;;;;;;13.99;100.00;95526.28;5042790;28;20041;-78
2023/07/25 07:43:06;;;;;;;0.10;0.10;;;;;;;14.03;100.00;95521.94;5042985;28;20049;-77
2023/07/25 07:45:52;;;;;;;0.10;0.10;;;;;;;14.03;100.00;95523.84;5030987;28;20559;-78
2023/07/25 07:48:39;;;;;;;0.10;0.10;;;;;;;14.04;100.00;95523.53;5032224;28;20042;-78
2023/07/25 07:51:25;;;;;;;0.13;0.13;;;;;;;14.08;100.00;95521.84;5033979;28;20136;-77
2023/07/25 07:54:11;;;;;;;0.00;0.00;;;;;;;14.02;100.00;95514.97;5042547;28;20574;-78
2023/07/25 07:56:57;;;;;;;0.10;0.10;;;;;;;13.97;100.00;95512.34;5023686;28;20551;-80
2023/07/25 07:59:43;;;;;;;0.10;0.10;;;;;;;13.72;100.00;95518.91;5017068;28;20069;-78
2023/07/25 08:02:31;;;;;;;0.10;0.10;;;;;;;13.55;100.00;95519.41;5019524;28;20037;-78
2023/07/25 08:05:18;;;;;;;0.20;0.20;;;;;;;13.72;100.00;95518.09;5020983;28;20053;-80
2023/07/25 08:08:04;;;;;;;0.10;0.10;;;;;;;13.92;100.00;95520.47;5015233;28;20033;-76
2023/07/25 08:10:50;;;;;;;0.10;0.10;;;;;;;14.03;100.00;95511.19;5021691;28;20120;-78
2023/07/25 08:13:35;;;;;;;0.10;0.10;;;;;;;14.09;100.00;95512.69;5015521;28;20061;-79
2023/07/25 08:16:21;;;;;;;0.17;0.17;;;;;;;14.07;100.00;95512.19;5009394;28;20049;-78
2023/07/25 08:19:07;;;;;;;0.10;0.10;;;;;;;14.06;100.00;95528.63;5020360;28;20045;-79
2023/07/25 08:21:54;;;;;;;0.10;0.10;;;;;;;14.06;100.00;95525.94;5023494;28;20041;-78
2023/07/25 08:24:40;;;;;;;0.10;0.10;;;;;;;14.10;100.00;95527.75;5023935;28;20534;-77
2023/07/25 08:27:26;;;;;;;0.10;0.10;;;;;;;14.06;100.00;95521.34;4986148;28;20468;-77
2023/07/25 08:30:13;;;;;;;0.10;0.10;;;;;;;14.05;100.00;95524.31;5003840;28;20503;-76
2023/07/25 08:33:00;;;;;;;0.10;0.10;;;;;;;14.08;100.00;95521.03;5019859;28;20800;-77
2023/07/25 08:35:47;;;;;;;0.10;0.10;;;;;;;14.10;100.00;95516.19;5021461;28;20047;-77
2023/07/25 08:38:33;;;;;;;0.10;0.10;;;;;;;14.09;100.00;95518.09;5019247;28;20121;-77
2023/07/25 08:41:25;;;;;;;0.10;0.10;;;;;;;14.12;100.00;95522.88;5011485;28;20154;-78
2023/07/25 08:44:12;;;;;;;0.10;0.10;;;;;;;14.27;100.00;95527.22;5005290;28;21073;-78
2023/07/25 08:47:01;;;;;;;0.10;0.10;;;;;;;14.31;100.00;95520.13;5015120;28;20044;-78
2023/07/25 08:49:52;;;;;;;0.10;0.10;;;;;;;14.29;100.00;95525.00;5000423;28;20037;-78
2023/07/25 08:52:40;;;;;;;0.10;0.10;;;;;;;14.16;100.00;95528.44;5017660;28;20164;-78
2023/07/25 08:55:26;;;;;;;0.10;0.10;;;;;;;14.06;100.00;95518.66;5018859;28;20045;-77
2023/07/25 08:58:13;;;;;;;0.10;0.10;;;;;;;14.31;100.00;95519.34;5021681;28;20041;-78
2023/07/25 09:00:59;;;;;;;0.10;0.10;;;;;;;14.44;100.00;95515.88;5004606;28;20092;-78
2023/07/25 09:03:47;;;;;;;0.10;0.10;;;;;;;14.30;100.00;95505.09;5020073;28;20037;-78
2023/07/25 09:06:33;;;;;;;0.10;0.10;;;;;;;14.22;100.00;95511.94;5021433;28;20056;-78
2023/07/25 09:09:19;;;;;;;0.20;0.20;;;;;;;14.42;100.00;95523.47;5021203;28;20588;-78
2023/07/25 09:12:07;;;;;;;0.10;0.10;;;;;;;14.62;100.00;95519.63;5018905;28;20075;-79
2023/07/25 09:14:53;;;;;;;0.10;0.10;;;;;;;14.67;100.00;95512.28;5020080;28;20042;-77
2023/07/25 09:17:39;;;;;;;0.10;0.10;;;;;;;14.72;100.00;95514.09;5005405;28;20072;-79
2023/07/25 09:20:25;;;;;;;0.10;0.10;;;;;;;14.94;100.00;95519.59;5019294;28;20403;-79
2023/07/25 09:23:19;;;;;;;0.10;0.10;;;;;;;15.08;100.00;95519.59;5013864;28;20110;-78
2023/07/25 09:26:08;;;;;;;0.10;0.10;;;;;;;15.42;100.00;95524.59;5021682;28;20084;-77
2023/07/25 09:28:57;;;;;;;0.10;0.10;;;;;;;15.53;100.00;95525.94;5021484;28;20040;-78
2023/07/25 09:31:45;;;;;;;0.00;0.00;;;;;;;15.49;100.00;95529.56;5018184;28;20443;-76
2023/07/25 09:34:31;;;;;;;0.20;0.20;;;;;;;15.71;100.00;95521.53;5012835;28;20129;-77
2023/07/25 09:37:17;;;;;;;0.10;0.10;;;;;;;15.23;100.00;95524.69;5003221;28;20038;-79
2023/07/25 09:40:10;;;;;;;0.20;0.20;;;;;;;15.42;100.00;95538.06;5021618;28;20045;-77
2023/07/25 09:42:56;;;;;;;0.10;0.10;;;;;;;15.36;100.00;95535.75;5022139;28;20493;-79
2023/07/25 09:45:42;;;;;;;0.10;0.10;;;;;;;15.37;100.00;95537.34;5021987;28;20041;-78
2023/07/25 09:48:28;;;;;;;0.10;0.10;;;;;;;15.16;100.00;95542.34;5013929;28;20050;-78
2023/07/25 09:51:14;;;;;;;0.20;0.20;;;;;;;15.56;100.00;95546.94;5012040;28;20041;-77
2023/07/25 09:54:05;;;;;;;0.10;0.10;;;;;;;15.51;100.00;95538.94;5017770;28;20049;-77
2023/07/25 09:56:51;;;;;;;;;;;;;;;16.14;100.00;95542.72;5035146;28;20075;-77
2023/07/25 09:59:37;;;;;;;0.10;0.10;;;;;;;16.40;100.00;95543.69;5038120;28;19921;-77
2023/07/25 10:02:24;;;;;;;0.10;0.10;;;;;;;16.71;100.00;95543.75;5041662;28;20041;-77
2023/07/25 10:05:11;;;;;;;0.10;0.10;;;;;;;17.18;100.00;95537.94;5020353;28;20052;-78
2023/07/25 10:08:00;;;;;;;0.10;0.10;;;;;;;17.51;100.00;95549.22;5037763;28;20037;-76
2023/07/25 10:10:48;;;;;;;0.10;0.10;;;;;;;17.21;100.00;95545.44;5042846;28;20041;-77
2023/07/25 10:13:33;;;;;;;0.10;0.10;;;;;;;17.47;100.00;95546.31;5037196;28;20131;-77
2023/07/25 10:16:21;;;;;;;0.10;0.10;;;;;;;18.09;100.00;95532.59;5037509;28;20493;-78
2023/07/25 10:19:07;;;;;;;0.10;0.10;;;;;;;17.72;100.00;95527.78;5036771;28;20488;-78
2023/07/25 10:21:53;;;;;;;0.10;0.10;;;;;;;16.91;100.00;95537.03;5038326;28;20045;-79
2023/07/25 10:24:39;;;;;;;0.20;0.20;;;;;;;16.64;100.00;95531.78;5024194;28;20040;-78
2023/07/25 10:27:26;;;;;;;0.20;0.20;;;;;;;16.69;100.00;95531.69;5042282;28;20049;-79
2023/07/25 10:30:26;;;;;;;0.20;0.20;;;;;;;16.43;100.00;95518.81;5022645;28;20503;-77
2023/07/25 10:33:14;;;;;;;0.10;0.10;;;;;;;16.51;100.00;95525.34;5038647;28;20041;-77
2023/07/25 10:36:00;;;;;;;0.20;0.20;;;;;;;16.36;100.00;95534.63;5040894;28;20082;-78
2023/07/25 10:38:48;;;;;;;0.10;0.10;;;;;;;16.12;100.00;95526.03;5040447;28;20521;-78
2023/07/25 10:41:33;;;;;;;0.10;0.10;;;;;;;16.70;100.00;95527.88;5039962;28;20052;-76
2023/07/25 10:44:37;;;;;;;0.20;0.20;;;;;;;18.25;100.00;95526.69;5035782;28;20041;-78
2023/07/25 10:47:45;;;;;;;0.10;0.10;;;;;;;17.81;100.00;95534.00;5039848;28;20076;-77
2023/07/25 10:50:43;;;;;;;0.10;0.10;;;;;;;16.83;100.00;95537.00;5038533;28;20037;-78
2023/07/25 10:53:29;;;;;;;0.10;0.10;;;;;;;17.02;100.00;95537.56;5033443;28;20112;-79
2023/07/25 10:56:17;;;;;;;0.10;0.10;;;;;;;17.67;100.00;95539.53;5030274;28;20589;-79
2023/07/25 10:59:07;;;;;;;0.17;0.17;;;;;;;17.57;100.00;95530.91;5001352;28;20040;-79
2023/07/25 11:01:53;;;;;;;0.10;0.10;;;;;;;17.94;100.00;95533.06;5020179;28;20111;-80
2023/07/25 11:04:39;;;;;;;0.10;0.10;;;;;;;18.78;100.00;95534.47;5013054;28;20034;-78
2023/07/25 11:07:24;;;;;;;0.13;0.13;;;;;;;19.61;100.00;95523.16;5015324;28;20067;-78
2023/07/25 11:10:11;;;;;;;0.10;0.10;;;;;;;19.69;100.00;95533.16;5002754;28;20045;-80
2023/07/25 11:12:59;;;;;;;0.10;0.10;;;;;;;19.82;100.00;95527.78;5017981;28;20182;-79
2023/07/25 11:15:45;;;;;;;0.10;0.10;;;;;;;19.77;100.00;95536.94;5021168;28;20039;-79
2023/07/25 11:18:37;;;;;;;0.10;0.10;;;;;;;19.13;100.00;95539.75;4998312;28;20043;-77
2023/07/25 11:21:25;;;;;;;0.10;0.10;;;;;;;18.87;100.00;95546.06;5012457;28;20041;-78
2023/07/25 11:24:12;;;;;;;0.10;0.10;;;;;;;18.89;100.00;95543.03;5020057;28;20052;-78
2023/07/25 11:27:02;;;;;;;0.20;0.20;;;;;;;21.94;91.85;95540.94;5020167;28;20086;-78
2023/07/25 11:29:48;;;;;;;0.10;0.10;;;;;;;22.45;86.19;95544.03;5017665;28;20673;-79
2023/07/25 11:32:34;;;;;;;0.10;0.10;;;;;;;20.06;93.54;95540.72;5013762;28;20136;-78
2023/07/25 11:35:21;;;;;;;0.20;0.20;;;;;;;22.49;84.55;95564.00;5019872;28;20037;-78
2023/07/25 11:38:07;;;;;;;0.10;0.10;;;;;;;22.71;81.70;95543.56;4999825;28;20042;-77
2023/07/25 11:40:56;;;;;;;0.20;0.20;;;;;;;23.34;74.56;95549.94;5016062;28;20155;-78
2023/07/25 11:43:42;;;;;;;0.20;0.20;;;;;;;24.39;66.06;95546.53;5018175;28;20049;-76
2023/07/25 11:46:28;;;;;;;0.20;0.20;;;;;;;27.37;47.42;95540.53;5018613;28;20722;-79
2023/07/25 11:49:15;;;;;;;0.10;0.10;;;;;;;27.35;44.72;95545.63;5021981;28;20060;-76
2023/07/25 11:52:01;;;;;;;0.20;0.20;;;;;;;28.32;38.64;95536.16;5011712;28;20730;-79
2023/07/25 11:54:47;;;;;;;0.10;0.10;;;;;;;28.22;38.54;95543.16;5023345;28;20043;-77
2023/07/25 11:57:35;;;;;;;0.10;0.10;;;;;;;24.58;53.98;95545.75;5021184;28;20045;-77
2023/07/25 12:00:22;;;;;;;0.10;0.10;;;;;;;23.11;65.04;95550.88;5005425;28;20045;-78
2023/07/25 12:03:19;;;;;;;0.10;0.10;;;;;;;21.61;78.86;95550.03;5008341;28;20095;-77
2023/07/25 12:06:05;;;;;;;0.10;0.10;;;;;;;26.48;48.84;95542.28;5025221;28;20056;-77
2023/07/25 12:08:52;;;;;;;0.22;0.20;;;;;;;27.83;43.75;95531.13;5023291;28;20045;-78
2023/07/25 12:11:42;;;;;;;0.15;0.15;;;;;;;32.89;29.21;95525.13;5020783;28;20574;-78
2023/07/25 12:14:30;;;;;;;0.10;0.10;;;;;;;26.09;46.13;95553.50;5027169;28;20072;-77
2023/07/25 12:17:18;;;;;;;0.10;0.10;;;;;;;23.19;68.67;95555.38;5012966;28;20608;-76
2023/07/25 12:20:12;;;;;;;0.10;0.10;;;;;;;21.51;77.65;95561.41;5022092;28;20112;-77
2023/07/25 12:23:06;;;;;;;0.10;0.10;;;;;;;21.08;79.11;95556.44;5021594;28;20037;-78
2023/07/25 12:25:52;;;;;;;0.10;0.10;;;;;;;21.36;78.77;95560.13;5022121;28;20045;-78
2023/07/25 12:28:42;;;;;;;0.10;0.10;;;;;;;19.94;85.92;95565.88;5013644;28;20059;-77
2023/07/25 12:31:28;;;;;;;0.10;0.10;;;;;;;19.17;92.44;95567.84;5015771;28;20617;-78
2023/07/25 12:34:20;;;;;;;0.10;0.10;;;;;;;19.71;92.66;95574.31;5004430;28;20124;-78
2023/07/25 12:37:06;;;;;;;0.10;0.10;;;;;;;19.56;91.12;95576.78;5021210;28;20051;-78
2023/07/25 12:39:52;;;;;;;0.10;0.10;;;;;;;20.41;90.17;95580.09;5022381;28;20132;-77
2023/07/25 12:42:38;;;;;;;0.10;0.10;;;;;;;23.55;73.79;95570.72;5014005;28;20037;-78
2023/07/25 12:45:24;;;;;;;0.20;0.20;;;;;;;23.84;64.68;95569.50;5020491;28;20048;-78
2023/07/25 12:48:09;;;;;;;0.10;0.10;;;;;;;23.38;66.63;95571.88;5023235;28;20498;-78
2023/07/25 12:50:55;;;;;;;0.25;0.25;;;;;;;27.19;42.40;95587.03;5022664;28;20119;-78
2023/07/25 12:53:41;;;;;;;0.20;0.20;;;;;;;31.69;29.82;95574.16;5012204;28;20141;-79
2023/07/25 12:56:27;;;;;;;0.10;0.10;;;;;;;27.51;36.13;95580.28;5031981;28;20045;-78